Terminal Aerodrome Forecast
Issued by NWS Grand Junction, CO

Home | Current Version | Previous Version | Text Only | Print | Product List | Glossary On
Versions: 1 2 3 4 5 6 7 8 9 10 11 12 13
000
FTUS45 KGJT 251129
TAFGJT
TAF
KGJT 251129Z 2512/2612 10004KT P6SM FEW110
     FM251400 33004KT P6SM VCSH BKN110
     FM252000 31009KT P6SM VCTS BKN070CB
     FM252300 33011G19KT P6SM VCSH BKN080
     FM260100 01010G18KT P6SM VCSH BKN100
     FM260600 35004KT P6SM SCT090=

USA.gov is the U.S. government's official web portal to all federal, state and local government web resources and services.